Humidity-temperature Sensor

Selected Measurement Type: Relative Humidity

 
Relative Humidity [%]     6 entries per hour
Showing data from 12/1/2022 (00:00:00 Z) to 11/28/2022 (00:01:00 Z)
Previous Next [ Day | 3-Days | 7-Days ]
First Last
Prev [ Day | 3-Days | 7-Days ] Next
First Last

Start Time:     :
End Time:     :     
Time (in GMT) :00 :50 :40 :30 :20 :10
Previous Next [ Day | 3-Days | 7-Days ]
First Last
Prev [ Day | 3-Days | 7-Days ] Next
First Last


123 => good data
MM => data is determined as missing
-- => data not received/configured
Back to Top Back to Top
12/1/2022 00:00 to 23:10 100.72 100.85 100.77 100.72 100.75 100.77
11/30/2022 23:00 to 22:10 100.83 100.83 100.85 100.83 100.70 100.48
11/30/2022 22:00 to 21:10 100.44 100.46 100.21 100.25 99.78 99.64
11/30/2022 21:00 to 20:10 99.49 98.94 98.73 98.28 98.26 98.22
11/30/2022 20:00 to 19:10 98.40 97.85 98.14 98.22 98.36 98.69
11/30/2022 19:00 to 18:10 98.88 99.18 99.18 99.02 99.04 98.85
11/30/2022 18:00 to 17:10 98.63 98.59 98.44 98.14 97.56 96.80
11/30/2022 17:00 to 16:10 95.51 94.48 93.51 93.33 93.20 93.00
11/30/2022 16:00 to 15:10 93.33 94.03 94.27 94.40 94.17 94.27
11/30/2022 15:00 to 14:10 94.29 94.97 95.38 95.92 96.20 96.20
11/30/2022 14:00 to 13:10 96.49 96.74 96.90 97.17 97.52 97.99
11/30/2022 13:00 to 12:10 98.18 98.36 98.90 99.37 99.59 99.90
11/30/2022 12:00 to 11:10 100.21 100.38 100.11 100.21 99.72 99.68
11/30/2022 11:00 to 10:10 99.39 99.29 98.79 98.32 98.26 97.93
11/30/2022 10:00 to 9:10 97.60 96.94 95.85 94.95 94.33 94.56
11/30/2022 09:00 to 8:10 94.68 94.46 94.89 95.36 96.20 96.55
11/30/2022 08:00 to 7:10 97.66 98.05 98.55 98.79 99.27 99.55
11/30/2022 07:00 to 6:10 99.35 99.49 99.78 100.07 100.44 100.72
11/30/2022 06:00 to 5:10 100.91 100.91 100.89 100.91 100.91 100.85
11/30/2022 05:00 to 4:10 100.91 100.91 100.89 100.89 100.83 100.77
11/30/2022 04:00 to 3:10 100.89 100.87 100.68 100.81 100.40 100.50
11/30/2022 03:00 to 2:10 100.40 100.11 99.90 100.07 100.17 100.40
11/30/2022 02:00 to 1:10 100.40 100.46 100.56 100.27 100.13 100.13
11/30/2022 01:00 to 0:10 100.11 100.01 100.33 100.13 100.19 100.36
11/30/2022 00:00 to 23:10 100.21 100.19 100.13 99.90 99.90 99.78
11/29/2022 23:00 to 22:10 99.70 99.64 99.43 99.43 99.14 98.98
11/29/2022 22:00 to 21:10 98.92 99.29 99.35 99.64 99.88 100.15
11/29/2022 21:00 to 20:10 100.29 100.48 100.33 100.36 100.25 100.09
11/29/2022 20:00 to 19:10 100.09 100.17 100.29 100.31 99.98 99.76
11/29/2022 19:00 to 18:10 99.68 99.66 99.59 99.22 98.98 98.67
11/29/2022 18:00 to 17:10 98.38 98.01 97.81 98.07 98.42 98.59
11/29/2022 17:00 to 16:10 98.69 98.61 98.73 98.88 98.98 99.10
11/29/2022 16:00 to 15:10 99.08 99.00 98.98 98.79 98.92 99.22
11/29/2022 15:00 to 14:10 99.08 99.02 99.04 98.69 97.97 97.44
11/29/2022 14:00 to 13:10 96.51 96.45 96.45 96.70 96.80 97.03
11/29/2022 13:00 to 12:10 96.70 96.08 95.32 94.52 93.04 91.74
11/29/2022 12:00 to 11:10 91.79 91.99 91.83 91.89 91.74 91.64
11/29/2022 11:00 to 10:10 91.72 91.21 91.05 90.61 90.45 89.55
11/29/2022 10:00 to 9:10 89.59 89.96 90.45 90.68 91.52 91.72
11/29/2022 09:00 to 8:10 92.03 92.18 91.93 91.91 92.07 92.18
11/29/2022 08:00 to 7:10 91.68 90.92 89.30 88.09 87.88 87.70
11/29/2022 07:00 to 6:10 87.47 87.96 88.05 87.70 87.74 87.39
11/29/2022 06:00 to 5:10 87.20 87.31 87.94 89.11 90.35 91.40
11/29/2022 05:00 to 4:10 92.50 93.22 93.59 93.88 93.90 93.45
11/29/2022 04:00 to 3:10 92.79 92.38 91.70 90.55 89.57 89.09
11/29/2022 03:00 to 2:10 89.22 88.91 88.93 89.01 89.42 89.65
11/29/2022 02:00 to 1:10 89.87 89.20 88.31 87.18 87.39 87.68
11/29/2022 01:00 to 0:10 87.51 87.96 88.17 88.42 88.72 88.58
11/29/2022 00:00 to 23:10 88.50 88.58 88.50 88.74 88.89 89.03
11/28/2022 23:00 to 22:10 88.79 89.05 89.36 89.63 89.22 88.54
11/28/2022 22:00 to 21:10 87.90 87.68 87.51 87.68 87.72 87.88
11/28/2022 21:00 to 20:10 88.42 88.77 89.20 89.96 90.41 90.72
11/28/2022 20:00 to 19:10 90.76 89.83 88.66 88.56 88.27 88.05
11/28/2022 19:00 to 18:10 88.17 88.27 88.05 88.05 88.05 88.33
11/28/2022 18:00 to 17:10 88.85 89.48 89.79 89.46 88.91 88.68
11/28/2022 17:00 to 16:10 88.79 88.83 89.38 90.22 90.92 91.64
11/28/2022 16:00 to 15:10 92.63 93.51 93.74 94.03 93.98 93.59
11/28/2022 15:00 to 14:10 93.10 92.94 92.63 92.32 92.36 92.63
11/28/2022 14:00 to 13:10 92.11 90.47 90.61 91.79 92.81 93.47
11/28/2022 13:00 to 12:10 93.18 92.92 92.48 93.02 93.04 92.65
11/28/2022 12:00 to 11:10 92.14 91.99 91.87 91.81 91.83 91.40
11/28/2022 11:00 to 10:10 90.92 90.70 90.24 90.10 90.00 90.84
11/28/2022 10:00 to 9:10 91.58 92.36 92.98 92.98 93.43 93.88
11/28/2022 09:00 to 8:10 94.17 93.96 93.18 92.22 91.54 90.78
11/28/2022 08:00 to 7:10 89.63 89.13 88.97 88.99 88.83 89.57
11/28/2022 07:00 to 6:10 90.94 92.03 93.39 94.79 95.61 96.18
11/28/2022 06:00 to 5:10 96.92 97.40 97.91 97.81 97.60 97.17
11/28/2022 05:00 to 4:10 96.90 96.49 96.45 96.37 96.22 95.96
11/28/2022 04:00 to 3:10 95.59 94.79 94.03 93.02 92.46 90.76
11/28/2022 03:00 to 2:10 89.28 89.16 89.71 90.08 90.43 91.07
11/28/2022 02:00 to 1:10 91.77 92.55 93.29 93.57 93.24 93.14
11/28/2022 01:00 to 0:10 93.02 92.36 92.40 92.44 92.24 91.93